createdAt,value
2017-11-06T00:01:25.366Z,4.50
2017-11-06T00:03:52.905Z,4.40
2017-11-06T00:06:20.365Z,4.50
2017-11-06T00:08:48.812Z,4.40
2017-11-06T00:11:17.045Z,4.40
2017-11-06T00:13:45.316Z,4.40
2017-11-06T00:16:12.793Z,4.40
2017-11-06T00:18:41.020Z,4.40
2017-11-06T00:21:08.481Z,4.30
2017-11-06T00:23:36.724Z,4.30
2017-11-06T00:26:04.184Z,4.30
2017-11-06T00:28:32.437Z,4.30
2017-11-06T00:31:00.698Z,4.30
2017-11-06T00:33:28.924Z,4.20
2017-11-06T00:35:56.397Z,4.20
2017-11-06T00:38:24.625Z,4.20
2017-11-06T00:40:52.076Z,4.20
2017-11-06T00:43:19.764Z,4.30
2017-11-06T00:45:48.012Z,4.10
2017-11-06T00:48:16.238Z,4.10
2017-11-06T00:50:43.700Z,4.10
2017-11-06T00:53:11.248Z,4.20
2017-11-06T00:55:39.504Z,4.20
2017-11-06T00:58:06.970Z,4.20
2017-11-06T01:00:35.221Z,4.10
2017-11-06T01:03:03.460Z,4.10
2017-11-06T01:05:30.939Z,4.10
2017-11-06T01:07:58.452Z,4.10
2017-11-06T01:10:26.709Z,4.10
2017-11-06T01:12:54.174Z,4.10
2017-11-06T01:15:22.416Z,4.10
2017-11-06T01:17:49.965Z,4.10
2017-11-06T01:20:18.193Z,4.00
2017-11-06T01:22:45.764Z,4.00
2017-11-06T01:25:13.993Z,4.00
2017-11-06T01:27:41.475Z,4.00
2017-11-06T01:30:09.936Z,4.00
2017-11-06T01:32:38.156Z,4.00
2017-11-06T01:35:05.613Z,3.90
2017-11-06T01:37:33.093Z,4.00
2017-11-06T01:40:00.554Z,4.00
2017-11-06T01:42:28.021Z,4.00
2017-11-06T01:44:55.485Z,3.90
2017-11-06T01:47:23.044Z,3.90
2017-11-06T01:49:51.409Z,3.90
2017-11-06T01:52:19.668Z,3.90
2017-11-06T01:54:47.928Z,3.80
2017-11-06T01:57:16.181Z,3.80
2017-11-06T01:59:43.733Z,3.80
2017-11-06T02:02:11.952Z,3.80
2017-11-06T02:04:39.541Z,3.70
2017-11-06T02:07:07.770Z,3.80
2017-11-06T02:09:35.229Z,3.80
2017-11-06T02:12:02.787Z,3.80
2017-11-06T02:14:31.024Z,3.90
2017-11-06T02:16:59.256Z,3.90
2017-11-06T02:19:26.749Z,3.90
2017-11-06T02:21:54.974Z,3.90
2017-11-06T02:24:22.437Z,3.90
2017-11-06T02:26:49.937Z,3.90
2017-11-06T02:29:17.393Z,3.90
2017-11-06T02:31:44.853Z,3.90
2017-11-06T02:34:12.513Z,3.90
2017-11-06T02:36:40.745Z,3.90
2017-11-06T02:39:08.222Z,3.80
2017-11-06T02:41:36.469Z,3.70
2017-11-06T02:44:04.025Z,3.70
2017-11-06T02:46:32.250Z,3.70
2017-11-06T02:48:59.720Z,3.70
2017-11-06T02:51:27.981Z,3.80
2017-11-06T02:53:56.244Z,3.70
2017-11-06T02:56:24.492Z,3.70
2017-11-06T02:58:51.956Z,3.70
2017-11-06T03:01:20.210Z,3.70
2017-11-06T03:03:48.445Z,3.70
2017-11-06T03:06:16.108Z,3.70
2017-11-06T03:08:44.336Z,3.60
2017-11-06T03:11:11.812Z,3.60
2017-11-06T03:13:39.287Z,3.60
2017-11-06T03:16:06.740Z,3.60
2017-11-06T03:18:34.241Z,3.60
2017-11-06T03:21:02.477Z,3.60
2017-11-06T03:23:30.041Z,3.50
2017-11-06T03:25:58.264Z,3.60
2017-11-06T03:28:25.933Z,3.50
2017-11-06T03:30:53.494Z,3.60
2017-11-06T03:33:21.753Z,3.60
2017-11-06T03:35:49.992Z,3.50
2017-11-06T03:38:17.548Z,3.50
2017-11-06T03:40:45.092Z,3.50
2017-11-06T03:43:12.647Z,3.50
2017-11-06T03:45:40.902Z,3.50
2017-11-06T03:48:09.146Z,3.50
2017-11-06T03:50:36.604Z,3.40
2017-11-06T03:53:04.865Z,3.40
2017-11-06T03:55:33.253Z,3.40
2017-11-06T03:58:00.715Z,3.40
2017-11-06T04:00:28.204Z,3.40
2017-11-06T04:02:56.472Z,3.30
2017-11-06T04:05:24.688Z,3.30
2017-11-06T04:07:52.144Z,3.30
2017-11-06T04:10:19.636Z,3.40
2017-11-06T04:12:47.101Z,3.30
2017-11-06T04:15:14.597Z,3.30
2017-11-06T04:17:42.829Z,3.30
2017-11-06T04:20:10.301Z,3.30
2017-11-06T04:22:38.528Z,3.30
2017-11-06T04:25:06.000Z,3.30
2017-11-06T04:27:34.254Z,3.20
2017-11-06T04:30:01.806Z,3.20
2017-11-06T04:32:30.069Z,3.30
2017-11-06T04:34:58.298Z,3.30
2017-11-06T04:37:25.860Z,3.30
2017-11-06T04:39:54.234Z,3.30
2017-11-06T04:42:25.405Z,3.20
2017-11-06T04:44:52.956Z,3.20
2017-11-06T04:47:20.403Z,3.10
2017-11-06T04:49:47.884Z,3.20
2017-11-06T04:52:16.124Z,3.10
2017-11-06T04:54:43.688Z,3.20
2017-11-06T04:57:11.948Z,3.10
2017-11-06T04:59:40.212Z,3.10
2017-11-06T05:02:08.436Z,3.10
2017-11-06T05:04:35.913Z,3.10
2017-11-06T05:07:04.146Z,3.10
2017-11-06T05:09:31.617Z,3.10
2017-11-06T05:11:59.869Z,3.20
2017-11-06T05:14:28.096Z,3.20
2017-11-06T05:16:55.581Z,3.20
2017-11-06T05:19:23.809Z,3.20
2017-11-06T05:21:51.265Z,3.20
2017-11-06T05:24:18.816Z,3.30
2017-11-06T05:26:47.047Z,3.50
2017-11-06T05:29:14.509Z,3.40
2017-11-06T05:31:42.060Z,3.50
2017-11-06T05:34:10.329Z,3.60
2017-11-06T05:36:38.576Z,3.60
2017-11-06T05:39:06.125Z,3.60
2017-11-06T05:41:34.354Z,3.70
2017-11-06T05:44:01.854Z,3.70
2017-11-06T05:46:30.139Z,3.70
2017-11-06T05:48:57.588Z,3.70
2017-11-06T05:51:25.077Z,3.70
2017-11-06T05:53:53.309Z,3.60
2017-11-06T05:56:20.764Z,3.50
2017-11-06T05:58:48.233Z,3.60
2017-11-06T06:01:15.756Z,3.50
2017-11-06T06:03:43.996Z,3.50
2017-11-06T06:06:12.966Z,3.40
2017-11-06T06:08:40.426Z,3.40
2017-11-06T06:11:07.981Z,3.50
2017-11-06T06:13:36.210Z,3.50
2017-11-06T06:16:04.690Z,3.40
2017-11-06T06:18:32.249Z,3.50
2017-11-06T06:21:00.504Z,3.60
2017-11-06T06:23:28.748Z,3.60
2017-11-06T06:25:56.306Z,3.60
2017-11-06T06:28:23.777Z,3.60
2017-11-06T06:30:51.240Z,3.60
2017-11-06T06:33:18.740Z,3.60
2017-11-06T06:35:46.969Z,3.50
2017-11-06T06:38:14.432Z,3.50
2017-11-06T06:40:41.913Z,3.50
2017-11-06T06:43:09.431Z,3.50
2017-11-06T06:45:37.686Z,3.40
2017-11-06T06:48:05.913Z,3.40
2017-11-06T06:50:33.381Z,3.40
2017-11-06T06:53:00.924Z,3.40
2017-11-06T06:55:29.154Z,3.50
2017-11-06T06:57:56.617Z,3.50
2017-11-06T07:00:24.109Z,3.60
2017-11-06T07:02:51.585Z,3.60
2017-11-06T07:05:19.057Z,3.70
2017-11-06T07:07:47.418Z,3.80
2017-11-06T07:10:14.879Z,3.80
2017-11-06T07:12:43.105Z,4.10
2017-11-06T07:15:11.336Z,4.00
2017-11-06T07:17:38.816Z,4.20
2017-11-06T07:20:07.039Z,4.30
2017-11-06T07:22:34.525Z,4.30
2017-11-06T07:25:02.770Z,4.40
2017-11-06T07:27:30.232Z,4.40
2017-11-06T07:29:58.455Z,4.40
2017-11-06T07:32:25.928Z,4.40
2017-11-06T07:34:53.384Z,4.50
2017-11-06T07:37:20.853Z,4.60
2017-11-06T07:39:48.357Z,4.70
2017-11-06T07:42:16.616Z,4.80
2017-11-06T07:44:44.875Z,4.90
2017-11-06T07:47:13.101Z,5.00
2017-11-06T07:49:40.569Z,5.00
2017-11-06T07:52:08.123Z,5.10
2017-11-06T07:54:36.377Z,5.20
2017-11-06T07:57:04.648Z,5.30
2017-11-06T07:59:32.878Z,5.30
2017-11-06T08:02:00.332Z,5.30
2017-11-06T08:04:28.585Z,5.40
2017-11-06T08:06:56.048Z,5.30
2017-11-06T08:09:23.580Z,5.30
2017-11-06T08:11:51.128Z,5.30
2017-11-06T08:14:19.380Z,5.40
2017-11-06T08:16:46.845Z,5.40
2017-11-06T08:19:15.072Z,5.50
2017-11-06T08:21:42.629Z,5.50
2017-11-06T08:24:10.858Z,5.60
2017-11-06T08:26:38.536Z,5.50
2017-11-06T08:29:06.753Z,5.60
2017-11-06T08:31:34.217Z,5.60
2017-11-06T08:34:01.784Z,5.60
2017-11-06T08:36:30.006Z,5.80
2017-11-06T08:38:57.597Z,5.80
2017-11-06T08:41:25.824Z,5.90
2017-11-06T08:43:53.284Z,5.80
2017-11-06T08:46:21.550Z,6.10
2017-11-06T08:48:49.812Z,6.10
2017-11-06T08:51:18.048Z,6.20
2017-11-06T08:53:47.017Z,6.20
2017-11-06T08:56:14.481Z,6.20
2017-11-06T08:58:41.952Z,6.20
2017-11-06T09:01:09.472Z,6.10
2017-11-06T09:03:37.688Z,6.10
2017-11-06T09:06:05.144Z,6.10
2017-11-06T09:08:32.626Z,6.20
2017-11-06T09:11:00.875Z,6.40
2017-11-06T09:13:29.099Z,6.50
2017-11-06T09:15:56.574Z,6.50
2017-11-06T09:18:24.793Z,6.70
2017-11-06T09:20:52.477Z,6.60
2017-11-06T09:23:20.744Z,6.80
2017-11-06T09:25:48.970Z,6.90
2017-11-06T09:28:16.540Z,6.90
2017-11-06T09:30:44.769Z,7.10
2017-11-06T09:33:12.246Z,7.00
2017-11-06T09:35:40.481Z,7.30
2017-11-06T09:38:07.935Z,7.20
2017-11-06T09:40:35.484Z,7.40
2017-11-06T09:43:03.753Z,7.50
2017-11-06T09:45:32.009Z,7.60
2017-11-06T09:48:00.273Z,7.50
2017-11-06T09:50:28.497Z,7.40
2017-11-06T09:52:55.954Z,7.40
2017-11-06T09:55:23.519Z,7.40
2017-11-06T09:57:51.744Z,7.50
2017-11-06T10:00:19.213Z,7.50
2017-11-06T10:02:46.816Z,7.60
2017-11-06T10:05:14.272Z,7.70
2017-11-06T10:07:41.732Z,7.90
2017-11-06T10:10:09.193Z,7.90
2017-11-06T10:12:37.444Z,8.10
2017-11-06T10:15:05.701Z,8.30
2017-11-06T10:17:33.966Z,8.50
2017-11-06T10:20:02.320Z,8.70
2017-11-06T10:22:29.879Z,8.70
2017-11-06T10:24:58.132Z,9.00
2017-11-06T10:27:26.592Z,9.10
2017-11-06T10:29:54.853Z,9.20
2017-11-06T10:32:22.304Z,9.10
2017-11-06T10:34:50.549Z,9.30
2017-11-06T10:37:18.096Z,9.30
2017-11-06T10:39:45.645Z,9.30
2017-11-06T10:42:13.906Z,9.80
2017-11-06T10:44:42.168Z,10.00
2017-11-06T10:47:10.424Z,10.10
2017-11-06T10:49:38.661Z,10.20
2017-11-06T10:52:06.120Z,10.20
2017-11-06T10:54:33.670Z,10.40
2017-11-06T10:57:01.934Z,10.30
2017-11-06T10:59:30.178Z,10.50
2017-11-06T11:01:57.729Z,10.50
2017-11-06T11:04:25.967Z,10.50
2017-11-06T11:06:53.465Z,10.50
2017-11-06T11:09:20.981Z,10.60
2017-11-06T11:11:49.240Z,11.30
2017-11-06T11:14:17.657Z,11.60
2017-11-06T11:16:45.119Z,11.50
2017-11-06T11:19:12.693Z,11.60
2017-11-06T11:21:40.925Z,11.30
2017-11-06T11:24:08.495Z,11.30
2017-11-06T11:26:36.728Z,11.50
2017-11-06T11:29:04.298Z,11.50
2017-11-06T11:31:32.568Z,12.60
2017-11-06T11:34:00.816Z,13.20
2017-11-06T11:36:29.073Z,13.50
2017-11-06T11:38:57.297Z,13.70
2017-11-06T11:41:24.773Z,13.60
2017-11-06T11:43:53.031Z,13.50
2017-11-06T11:46:20.584Z,13.50
2017-11-06T11:48:48.851Z,13.10
2017-11-06T11:51:17.317Z,12.90
2017-11-06T11:53:45.573Z,12.50
2017-11-06T11:56:13.055Z,12.40
2017-11-06T11:58:40.521Z,12.30
2017-11-06T12:01:07.998Z,12.30
2017-11-06T12:03:36.225Z,12.60
2017-11-06T12:06:22.428Z,12.60
2017-11-06T12:08:50.656Z,15.00
2017-11-06T12:11:18.140Z,15.00
2017-11-06T12:13:46.379Z,15.40
2017-11-06T12:16:13.853Z,15.40
2017-11-06T12:18:41.309Z,14.90
2017-11-06T12:21:08.782Z,14.80
2017-11-06T12:23:36.357Z,14.50
2017-11-06T12:26:04.582Z,14.30
2017-11-06T12:28:32.044Z,14.20
2017-11-06T12:30:59.540Z,14.20
2017-11-06T12:33:27.000Z,14.20
2017-11-06T12:35:54.483Z,14.50
2017-11-06T12:38:21.954Z,14.90
2017-11-06T12:40:49.417Z,15.60
2017-11-06T12:43:16.899Z,16.50
2017-11-06T12:45:44.364Z,18.00
2017-11-06T12:48:12.589Z,18.40
2017-11-06T12:50:40.074Z,18.30
2017-11-06T12:53:08.319Z,18.70
2017-11-06T12:55:36.580Z,18.90
2017-11-06T12:58:04.837Z,18.80
2017-11-06T13:00:33.097Z,19.20
2017-11-06T13:03:01.357Z,19.30
2017-11-06T13:05:29.613Z,19.00
2017-11-06T13:07:57.077Z,19.00
2017-11-06T13:10:24.597Z,18.40
2017-11-06T13:12:52.137Z,17.90
2017-11-06T13:15:19.605Z,17.40
2017-11-06T13:17:47.128Z,16.80
2017-11-06T13:20:15.348Z,15.50
2017-11-06T13:22:42.812Z,15.40
2017-11-06T13:25:11.053Z,14.50
2017-11-06T13:27:38.533Z,14.50
2017-11-06T13:30:06.798Z,13.70
2017-11-06T13:32:35.244Z,13.40
2017-11-06T13:35:02.800Z,13.40
2017-11-06T13:37:31.041Z,12.90
2017-11-06T13:39:58.513Z,12.90
2017-11-06T13:42:26.861Z,12.50
2017-11-06T13:44:55.121Z,12.40
2017-11-06T13:47:23.381Z,12.20
2017-11-06T13:49:51.847Z,12.40
2017-11-06T13:52:20.118Z,13.40
2017-11-06T13:54:47.612Z,13.40
2017-11-06T13:57:15.848Z,17.10
2017-11-06T13:59:43.312Z,17.10
2017-11-06T14:02:11.552Z,20.30
2017-11-06T14:04:39.121Z,20.30
2017-11-06T14:07:07.344Z,23.00
2017-11-06T14:09:34.824Z,23.00
2017-11-06T14:12:03.056Z,24.70
2017-11-06T14:14:30.534Z,24.70
2017-11-06T14:16:58.783Z,25.80
2017-11-06T14:19:27.004Z,26.10
2017-11-06T14:21:54.484Z,26.00
2017-11-06T14:24:22.724Z,26.90
2017-11-06T14:26:50.283Z,26.80
2017-11-06T14:29:17.828Z,27.00
2017-11-06T14:31:46.189Z,27.30
2017-11-06T14:34:13.647Z,27.30
2017-11-06T14:36:41.865Z,27.10
2017-11-06T14:39:09.434Z,27.10
2017-11-06T14:41:36.907Z,26.80
2017-11-06T14:44:04.425Z,26.40
2017-11-06T14:46:32.674Z,25.50
2017-11-06T14:49:00.220Z,25.50
2017-11-06T14:51:27.773Z,24.80
2017-11-06T14:53:56.038Z,23.10
2017-11-06T14:56:24.277Z,21.80
2017-11-06T14:58:53.244Z,20.40
2017-11-06T15:01:20.809Z,20.40
2017-11-06T15:03:49.069Z,18.10
2017-11-06T15:06:17.332Z,17.30
2017-11-06T15:08:45.556Z,16.30
2017-11-06T15:11:13.133Z,16.20
2017-11-06T15:13:41.378Z,15.20
2017-11-06T15:16:08.932Z,15.20
2017-11-06T15:18:37.205Z,14.40
2017-11-06T15:21:04.707Z,14.40
2017-11-06T15:23:32.184Z,14.10
2017-11-06T15:26:00.444Z,13.50
2017-11-06T15:28:28.684Z,13.30
2017-11-06T15:30:56.158Z,13.30
2017-11-06T15:33:24.404Z,12.90
2017-11-06T15:35:52.664Z,12.70
2017-11-06T15:38:20.928Z,12.60
2017-11-06T15:40:49.161Z,12.40
2017-11-06T15:43:16.642Z,12.40
2017-11-06T15:45:44.109Z,12.30
2017-11-06T15:48:11.585Z,12.20
2017-11-06T15:50:39.198Z,12.00
2017-11-06T15:53:06.661Z,11.90
2017-11-06T15:55:34.156Z,11.80
2017-11-06T15:58:01.634Z,11.60
2017-11-06T16:00:29.124Z,11.50
2017-11-06T16:02:57.438Z,11.30
2017-11-06T16:05:24.888Z,11.30
2017-11-06T16:07:52.372Z,11.20
2017-11-06T16:10:20.617Z,11.00
2017-11-06T16:12:48.084Z,11.00
2017-11-06T16:15:16.315Z,10.90
2017-11-06T16:17:43.793Z,10.90
2017-11-06T16:20:11.416Z,10.80
2017-11-06T16:22:39.644Z,10.70
2017-11-06T16:25:07.126Z,10.70
2017-11-06T16:27:34.656Z,10.70
2017-11-06T16:30:02.937Z,10.70
2017-11-06T16:32:31.298Z,10.60
2017-11-06T16:35:00.470Z,10.60
2017-11-06T16:37:28.738Z,10.60
2017-11-06T16:39:56.985Z,10.60
2017-11-06T16:42:25.209Z,10.60
2017-11-06T16:44:52.688Z,10.60
2017-11-06T16:47:20.960Z,10.50
2017-11-06T16:49:49.189Z,10.40
2017-11-06T16:52:16.652Z,10.40
2017-11-06T16:54:44.931Z,10.30
2017-11-06T16:57:12.461Z,10.30
2017-11-06T16:59:40.683Z,10.10
2017-11-06T17:02:08.181Z,10.10
2017-11-06T17:04:35.646Z,10.00
2017-11-06T17:07:03.109Z,9.90
2017-11-06T17:09:30.593Z,9.90
2017-11-06T17:11:58.856Z,9.70
2017-11-06T17:14:27.109Z,9.60
2017-11-06T17:16:55.328Z,9.50
2017-11-06T17:19:22.839Z,9.50
2017-11-06T17:21:50.310Z,9.40
2017-11-06T17:24:17.789Z,9.30
2017-11-06T17:26:46.065Z,9.20
2017-11-06T17:29:13.607Z,9.20
2017-11-06T17:31:41.867Z,9.00
2017-11-06T17:34:09.378Z,9.00
2017-11-06T17:36:36.855Z,8.90
2017-11-06T17:39:04.343Z,8.80
2017-11-06T17:41:31.975Z,8.80
2017-11-06T17:43:59.458Z,8.70
2017-11-06T17:46:27.029Z,8.70
2017-11-06T17:48:54.561Z,8.70
2017-11-06T17:51:22.817Z,8.50
2017-11-06T17:53:51.107Z,8.50
2017-11-06T17:56:18.669Z,8.40
2017-11-06T17:58:47.008Z,8.40
2017-11-06T18:01:14.508Z,8.40
2017-11-06T18:03:43.013Z,8.40
2017-11-06T18:06:10.506Z,8.30
2017-11-06T18:08:38.105Z,8.30
2017-11-06T18:11:05.599Z,8.20
2017-11-06T18:13:34.861Z,8.10
2017-11-06T18:16:02.583Z,8.00
2017-11-06T18:18:30.104Z,8.00
2017-11-06T18:20:58.366Z,7.90
2017-11-06T18:23:26.643Z,7.90
2017-11-06T18:25:54.193Z,7.80
2017-11-06T18:28:22.610Z,7.80
2017-11-06T18:30:50.135Z,7.70
2017-11-06T18:33:17.635Z,7.70
2017-11-06T18:35:45.130Z,7.70
2017-11-06T18:38:12.722Z,7.60
2017-11-06T18:40:40.243Z,7.60
2017-11-06T18:43:08.515Z,7.50
2017-11-06T18:45:36.899Z,7.50
2017-11-06T18:48:04.431Z,7.50
2017-11-06T18:50:32.431Z,7.40
2017-11-06T18:53:00.728Z,7.30
2017-11-06T18:55:28.276Z,7.30
2017-11-06T18:57:56.557Z,7.30
2017-11-06T19:00:24.083Z,7.20
2017-11-06T19:02:51.731Z,7.20
2017-11-06T19:05:19.241Z,7.10
2017-11-06T19:07:46.823Z,7.10
2017-11-06T19:10:14.475Z,7.10
2017-11-06T19:12:42.023Z,7.00
2017-11-06T19:15:09.552Z,7.00
2017-11-06T19:17:38.689Z,6.90
2017-11-06T19:20:06.184Z,6.90
2017-11-06T19:22:33.762Z,6.90
2017-11-06T19:25:01.264Z,6.80
2017-11-06T19:27:29.882Z,6.70
2017-11-06T19:29:58.115Z,6.70
2017-11-06T19:32:26.323Z,6.70
2017-11-06T19:34:54.973Z,6.70
2017-11-06T19:37:23.528Z,6.60
2017-11-06T19:39:51.033Z,6.60
2017-11-06T19:42:19.381Z,6.50
2017-11-06T19:44:47.887Z,6.50
2017-11-06T19:47:15.427Z,6.50
2017-11-06T19:49:44.231Z,6.50
2017-11-06T19:52:12.931Z,6.50
2017-11-06T19:54:43.015Z,6.40
2017-11-06T19:57:11.669Z,6.40
2017-11-06T19:59:39.966Z,6.30
2017-11-06T20:02:09.255Z,6.30
2017-11-06T20:04:37.880Z,6.20
2017-11-06T20:07:06.456Z,6.20
2017-11-06T20:09:35.812Z,6.20
2017-11-06T20:12:03.347Z,6.10
2017-11-06T20:14:31.818Z,6.10
2017-11-06T20:16:59.673Z,6.10
2017-11-06T20:19:27.831Z,6.10
2017-11-06T20:21:55.347Z,6.00
2017-11-06T20:24:24.500Z,5.90
2017-11-06T20:26:52.180Z,5.90
2017-11-06T20:29:19.736Z,5.90
2017-11-06T20:31:48.362Z,5.90
2017-11-06T20:34:17.272Z,5.80
2017-11-06T20:36:44.827Z,5.70
2017-11-06T20:39:12.695Z,5.70
2017-11-06T20:41:41.424Z,5.70
2017-11-06T20:44:09.688Z,5.70
2017-11-06T20:46:37.956Z,5.60
2017-11-06T20:49:05.847Z,5.60
2017-11-06T20:51:35.020Z,5.60
2017-11-06T20:54:02.647Z,5.60
2017-11-06T20:56:30.616Z,5.50
2017-11-06T20:58:58.174Z,5.50
2017-11-06T21:01:25.718Z,5.50
2017-11-06T21:03:53.667Z,5.50
2017-11-06T21:06:21.251Z,5.50
2017-11-06T21:08:49.549Z,5.50
2017-11-06T21:11:17.807Z,5.50
2017-11-06T21:13:46.143Z,5.50
2017-11-06T21:16:14.412Z,5.50
2017-11-06T21:18:42.711Z,5.50
2017-11-06T21:21:12.924Z,5.50
2017-11-06T21:23:40.759Z,5.40
2017-11-06T21:26:08.715Z,5.40
2017-11-06T21:28:36.668Z,5.40
2017-11-06T21:31:04.184Z,5.40
2017-11-06T21:33:31.761Z,5.40
2017-11-06T21:35:59.279Z,5.40
2017-11-06T21:38:26.823Z,5.30
2017-11-06T21:40:54.342Z,5.30
2017-11-06T21:43:23.058Z,5.20
2017-11-06T21:45:51.286Z,5.20
2017-11-06T21:48:18.791Z,5.20
2017-11-06T21:50:46.279Z,5.10
2017-11-06T21:53:13.795Z,5.10
2017-11-06T21:55:42.090Z,5.00
2017-11-06T21:58:09.582Z,5.00
2017-11-06T22:00:37.121Z,5.00
2017-11-06T22:03:04.613Z,4.90
2017-11-06T22:05:32.115Z,4.90
2017-11-06T22:07:59.637Z,4.90
2017-11-06T22:10:27.112Z,4.90
2017-11-06T22:12:55.388Z,4.80
2017-11-06T22:15:23.745Z,4.80
2017-11-06T22:17:52.113Z,4.80
2017-11-06T22:20:19.575Z,4.80
2017-11-06T22:22:47.059Z,4.70
2017-11-06T22:25:14.532Z,4.70
2017-11-06T22:27:42.761Z,4.70
2017-11-06T22:30:10.221Z,4.60
2017-11-06T22:32:38.480Z,4.60
2017-11-06T22:35:06.741Z,4.60
2017-11-06T22:37:34.196Z,4.60
2017-11-06T22:40:02.545Z,4.60
2017-11-06T22:42:30.810Z,4.70
2017-11-06T22:44:59.068Z,4.70
2017-11-06T22:47:27.324Z,4.70
2017-11-06T22:49:55.548Z,4.80
2017-11-06T22:52:23.028Z,4.80
2017-11-06T22:54:51.287Z,4.80
2017-11-06T22:57:19.552Z,4.80
2017-11-06T22:59:47.777Z,4.80
2017-11-06T23:02:15.261Z,4.80
2017-11-06T23:04:43.509Z,4.80
2017-11-06T23:07:11.736Z,4.90
2017-11-06T23:09:39.208Z,4.80
2017-11-06T23:12:07.437Z,4.90
2017-11-06T23:14:34.887Z,4.80
2017-11-06T23:17:02.457Z,4.80
2017-11-06T23:19:30.712Z,4.80
2017-11-06T23:21:58.972Z,4.80
2017-11-06T23:24:27.204Z,4.80
2017-11-06T23:26:54.665Z,4.80
2017-11-06T23:29:22.152Z,4.80
2017-11-06T23:31:49.612Z,4.80
2017-11-06T23:34:17.077Z,4.80
2017-11-06T23:36:44.553Z,4.90
2017-11-06T23:39:12.781Z,4.80
2017-11-06T23:41:40.240Z,4.80
2017-11-06T23:44:08.485Z,4.80
2017-11-06T23:46:35.941Z,4.80
2017-11-06T23:49:03.404Z,4.80
2017-11-06T23:51:31.632Z,4.70
2017-11-06T23:53:59.097Z,4.70
2017-11-06T23:56:27.344Z,4.60
2017-11-06T23:58:55.573Z,4.60
